sensor_id;sensor_type;location;lat;lon;timestamp;P1;durP1;ratioP1;P2;durP2;ratioP2
74100;SDS011;62462;52.530;21.682;2022-10-15T00:00:25;68.57;;;32.03;;
74100;SDS011;62462;52.530;21.682;2022-10-15T00:02:51;65.50;;;31.45;;
74100;SDS011;62462;52.530;21.682;2022-10-15T00:05:17;55.30;;;30.63;;
74100;SDS011;62462;52.530;21.682;2022-10-15T00:07:43;55.28;;;30.20;;
74100;SDS011;62462;52.530;21.682;2022-10-15T00:10:08;54.58;;;29.33;;
74100;SDS011;62462;52.530;21.682;2022-10-15T00:12:34;53.03;;;28.95;;
74100;SDS011;62462;52.530;21.682;2022-10-15T00:15:00;51.60;;;29.08;;
74100;SDS011;62462;52.530;21.682;2022-10-15T00:17:26;56.22;;;30.10;;
74100;SDS011;62462;52.530;21.682;2022-10-15T00:19:51;55.83;;;30.92;;
74100;SDS011;62462;52.530;21.682;2022-10-15T00:22:17;59.20;;;30.88;;
74100;SDS011;62462;52.530;21.682;2022-10-15T00:24:43;55.63;;;31.63;;
74100;SDS011;62462;52.530;21.682;2022-10-15T00:27:08;62.30;;;32.60;;
74100;SDS011;62462;52.530;21.682;2022-10-15T00:29:34;56.70;;;31.52;;
74100;SDS011;62462;52.530;21.682;2022-10-15T00:32:00;56.10;;;32.08;;
74100;SDS011;62462;52.530;21.682;2022-10-15T00:34:25;57.53;;;31.98;;
74100;SDS011;62462;52.530;21.682;2022-10-15T00:36:51;58.85;;;31.42;;
74100;SDS011;62462;52.530;21.682;2022-10-15T00:39:17;60.38;;;32.92;;
74100;SDS011;62462;52.530;21.682;2022-10-15T00:41:43;54.67;;;31.33;;
74100;SDS011;62462;52.530;21.682;2022-10-15T00:46:55;51.67;;;29.65;;
74100;SDS011;62462;52.530;21.682;2022-10-15T00:49:25;51.92;;;27.60;;
74100;SDS011;62462;52.530;21.682;2022-10-15T00:52:01;53.75;;;30.02;;
74100;SDS011;62462;52.530;21.682;2022-10-15T00:54:36;55.67;;;29.30;;
74100;SDS011;62462;52.530;21.682;2022-10-15T00:57:12;69.85;;;34.95;;
74100;SDS011;62462;52.530;21.682;2022-10-15T00:59:39;62.17;;;31.70;;
74100;SDS011;62462;52.530;21.682;2022-10-15T01:02:07;57.83;;;30.05;;
74100;SDS011;62462;52.530;21.682;2022-10-15T01:04:34;53.90;;;28.05;;
74100;SDS011;62462;52.530;21.682;2022-10-15T01:07:00;51.05;;;27.15;;
74100;SDS011;62462;52.530;21.682;2022-10-15T01:09:26;50.45;;;28.75;;
74100;SDS011;62462;52.530;21.682;2022-10-15T01:11:52;48.65;;;27.48;;
74100;SDS011;62462;52.530;21.682;2022-10-15T01:17:28;54.10;;;28.13;;
74100;SDS011;62462;52.530;21.682;2022-10-15T01:20:48;52.47;;;29.70;;
74100;SDS011;62462;52.530;21.682;2022-10-15T01:29:18;51.95;;;27.38;;
74100;SDS011;62462;52.530;21.682;2022-10-15T01:39:58;55.50;;;28.50;;
74100;SDS011;62462;52.530;21.682;2022-10-15T01:42:36;48.42;;;26.65;;
74100;SDS011;62462;52.530;21.682;2022-10-15T01:45:19;46.42;;;25.40;;
74100;SDS011;62462;52.530;21.682;2022-10-15T01:50:19;50.50;;;26.27;;
74100;SDS011;62462;52.530;21.682;2022-10-15T01:52:48;58.03;;;29.45;;
74100;SDS011;62462;52.530;21.682;2022-10-15T01:55:15;66.10;;;32.28;;
74100;SDS011;62462;52.530;21.682;2022-10-15T01:57:44;72.85;;;35.13;;
74100;SDS011;62462;52.530;21.682;2022-10-15T02:00:11;70.40;;;33.97;;
74100;SDS011;62462;52.530;21.682;2022-10-15T02:02:37;70.95;;;36.03;;
74100;SDS011;62462;52.530;21.682;2022-10-15T02:05:08;71.80;;;35.83;;
74100;SDS011;62462;52.530;21.682;2022-10-15T02:19:15;52.25;;;29.35;;
74100;SDS011;62462;52.530;21.682;2022-10-15T02:21:46;50.45;;;27.20;;
74100;SDS011;62462;52.530;21.682;2022-10-15T02:24:24;43.13;;;25.33;;
74100;SDS011;62462;52.530;21.682;2022-10-15T02:26:54;43.13;;;24.70;;
74100;SDS011;62462;52.530;21.682;2022-10-15T02:29:23;41.00;;;24.02;;
74100;SDS011;62462;52.530;21.682;2022-10-15T02:31:52;44.60;;;25.75;;
74100;SDS011;62462;52.530;21.682;2022-10-15T02:34:21;42.65;;;24.02;;
74100;SDS011;62462;52.530;21.682;2022-10-15T02:36:49;43.95;;;25.75;;
74100;SDS011;62462;52.530;21.682;2022-10-15T02:39:17;47.83;;;27.05;;
74100;SDS011;62462;52.530;21.682;2022-10-15T02:41:48;46.72;;;25.70;;
74100;SDS011;62462;52.530;21.682;2022-10-15T02:44:15;46.67;;;25.88;;
74100;SDS011;62462;52.530;21.682;2022-10-15T02:46:41;45.88;;;25.90;;
74100;SDS011;62462;52.530;21.682;2022-10-15T02:49:06;45.80;;;24.98;;
74100;SDS011;62462;52.530;21.682;2022-10-15T02:51:33;47.45;;;25.25;;
74100;SDS011;62462;52.530;21.682;2022-10-15T02:54:00;43.70;;;24.27;;
74100;SDS011;62462;52.530;21.682;2022-10-15T02:56:27;42.03;;;24.38;;
74100;SDS011;62462;52.530;21.682;2022-10-15T02:58:53;39.65;;;23.65;;
74100;SDS011;62462;52.530;21.682;2022-10-15T03:01:19;40.60;;;23.58;;
74100;SDS011;62462;52.530;21.682;2022-10-15T03:03:45;39.30;;;23.73;;
74100;SDS011;62462;52.530;21.682;2022-10-15T03:06:11;36.00;;;22.10;;
74100;SDS011;62462;52.530;21.682;2022-10-15T03:08:37;31.27;;;19.23;;
74100;SDS011;62462;52.530;21.682;2022-10-15T03:11:02;33.08;;;19.75;;
74100;SDS011;62462;52.530;21.682;2022-10-15T03:13:28;29.38;;;19.40;;
74100;SDS011;62462;52.530;21.682;2022-10-15T03:15:54;31.08;;;19.35;;
74100;SDS011;62462;52.530;21.682;2022-10-15T03:18:20;33.63;;;20.75;;
74100;SDS011;62462;52.530;21.682;2022-10-15T03:20:55;42.63;;;23.05;;
74100;SDS011;62462;52.530;21.682;2022-10-15T03:23:21;35.00;;;21.50;;
74100;SDS011;62462;52.530;21.682;2022-10-15T03:25:47;33.75;;;19.67;;
74100;SDS011;62462;52.530;21.682;2022-10-15T03:28:13;35.00;;;21.02;;
74100;SDS011;62462;52.530;21.682;2022-10-15T03:30:39;34.38;;;20.63;;
74100;SDS011;62462;52.530;21.682;2022-10-15T03:33:06;35.70;;;22.10;;
74100;SDS011;62462;52.530;21.682;2022-10-15T03:35:31;38.42;;;22.63;;
74100;SDS011;62462;52.530;21.682;2022-10-15T03:37:57;34.33;;;20.45;;
74100;SDS011;62462;52.530;21.682;2022-10-15T03:40:23;35.85;;;20.38;;
74100;SDS011;62462;52.530;21.682;2022-10-15T03:42:49;33.45;;;18.63;;
74100;SDS011;62462;52.530;21.682;2022-10-15T03:45:16;35.47;;;20.13;;
74100;SDS011;62462;52.530;21.682;2022-10-15T03:47:44;33.55;;;19.40;;
74100;SDS011;62462;52.530;21.682;2022-10-15T03:50:10;33.85;;;20.63;;
74100;SDS011;62462;52.530;21.682;2022-10-15T03:52:37;29.50;;;17.67;;
74100;SDS011;62462;52.530;21.682;2022-10-15T03:55:03;29.20;;;18.15;;
74100;SDS011;62462;52.530;21.682;2022-10-15T03:57:29;27.10;;;17.95;;
74100;SDS011;62462;52.530;21.682;2022-10-15T03:59:55;29.05;;;19.10;;
74100;SDS011;62462;52.530;21.682;2022-10-15T04:02:21;31.52;;;18.05;;
74100;SDS011;62462;52.530;21.682;2022-10-15T04:04:46;33.15;;;19.83;;
74100;SDS011;62462;52.530;21.682;2022-10-15T04:07:12;30.38;;;18.35;;
74100;SDS011;62462;52.530;21.682;2022-10-15T04:09:38;26.55;;;16.35;;
74100;SDS011;62462;52.530;21.682;2022-10-15T04:12:03;23.35;;;16.10;;
74100;SDS011;62462;52.530;21.682;2022-10-15T04:14:29;28.77;;;17.23;;
74100;SDS011;62462;52.530;21.682;2022-10-15T04:16:55;28.98;;;17.45;;
74100;SDS011;62462;52.530;21.682;2022-10-15T04:19:23;30.75;;;18.98;;
74100;SDS011;62462;52.530;21.682;2022-10-15T04:21:49;27.20;;;17.90;;
74100;SDS011;62462;52.530;21.682;2022-10-15T04:24:14;32.70;;;20.27;;
74100;SDS011;62462;52.530;21.682;2022-10-15T04:26:40;29.95;;;19.65;;
74100;SDS011;62462;52.530;21.682;2022-10-15T04:29:06;25.00;;;18.20;;
74100;SDS011;62462;52.530;21.682;2022-10-15T04:31:31;32.28;;;21.10;;
74100;SDS011;62462;52.530;21.682;2022-10-15T04:33:57;28.25;;;19.17;;
74100;SDS011;62462;52.530;21.682;2022-10-15T04:36:23;30.55;;;19.40;;
74100;SDS011;62462;52.530;21.682;2022-10-15T04:38:49;32.83;;;20.52;;
74100;SDS011;62462;52.530;21.682;2022-10-15T04:41:16;36.08;;;20.40;;
74100;SDS011;62462;52.530;21.682;2022-10-15T04:43:41;32.47;;;20.17;;
74100;SDS011;62462;52.530;21.682;2022-10-15T04:46:07;33.15;;;21.27;;
74100;SDS011;62462;52.530;21.682;2022-10-15T04:48:34;36.60;;;21.80;;
74100;SDS011;62462;52.530;21.682;2022-10-15T04:51:02;38.58;;;24.23;;
74100;SDS011;62462;52.530;21.682;2022-10-15T04:53:32;43.15;;;23.33;;
74100;SDS011;62462;52.530;21.682;2022-10-15T04:56:02;43.63;;;24.10;;
74100;SDS011;62462;52.530;21.682;2022-10-15T04:58:32;41.13;;;24.30;;
74100;SDS011;62462;52.530;21.682;2022-10-15T05:01:00;41.13;;;23.83;;
74100;SDS011;62462;52.530;21.682;2022-10-15T05:03:27;43.13;;;24.85;;
74100;SDS011;62462;52.530;21.682;2022-10-15T05:05:58;39.75;;;23.17;;
74100;SDS011;62462;52.530;21.682;2022-10-15T05:08:28;41.00;;;24.63;;
74100;SDS011;62462;52.530;21.682;2022-10-15T05:10:58;39.90;;;23.70;;
74100;SDS011;62462;52.530;21.682;2022-10-15T05:13:31;44.33;;;25.75;;
74100;SDS011;62462;52.530;21.682;2022-10-15T05:16:17;44.65;;;24.52;;
74100;SDS011;62462;52.530;21.682;2022-10-15T05:18:45;45.60;;;25.50;;
74100;SDS011;62462;52.530;21.682;2022-10-15T05:21:13;47.28;;;26.48;;
74100;SDS011;62462;52.530;21.682;2022-10-15T05:23:39;52.13;;;27.05;;
74100;SDS011;62462;52.530;21.682;2022-10-15T05:26:06;53.97;;;28.30;;
74100;SDS011;62462;52.530;21.682;2022-10-15T05:28:34;48.42;;;27.80;;
74100;SDS011;62462;52.530;21.682;2022-10-15T05:31:07;52.08;;;30.02;;
74100;SDS011;62462;52.530;21.682;2022-10-15T05:33:37;48.88;;;28.35;;
74100;SDS011;62462;52.530;21.682;2022-10-15T05:36:07;46.70;;;28.75;;
74100;SDS011;62462;52.530;21.682;2022-10-15T05:38:33;48.60;;;27.95;;
74100;SDS011;62462;52.530;21.682;2022-10-15T05:40:58;45.47;;;26.42;;
74100;SDS011;62462;52.530;21.682;2022-10-15T05:43:24;44.05;;;26.05;;
74100;SDS011;62462;52.530;21.682;2022-10-15T05:45:53;47.75;;;27.67;;
74100;SDS011;62462;52.530;21.682;2022-10-15T05:48:19;46.58;;;26.38;;
74100;SDS011;62462;52.530;21.682;2022-10-15T05:50:45;44.40;;;26.30;;
74100;SDS011;62462;52.530;21.682;2022-10-15T05:53:11;45.60;;;26.20;;
74100;SDS011;62462;52.530;21.682;2022-10-15T05:55:36;49.17;;;27.45;;
74100;SDS011;62462;52.530;21.682;2022-10-15T05:58:02;43.60;;;25.85;;
74100;SDS011;62462;52.530;21.682;2022-10-15T06:00:29;47.15;;;27.10;;
74100;SDS011;62462;52.530;21.682;2022-10-15T06:02:55;75.03;;;38.25;;
74100;SDS011;62462;52.530;21.682;2022-10-15T06:05:21;79.32;;;36.28;;
74100;SDS011;62462;52.530;21.682;2022-10-15T06:07:47;83.15;;;38.03;;
74100;SDS011;62462;52.530;21.682;2022-10-15T06:10:12;64.28;;;31.90;;
74100;SDS011;62462;52.530;21.682;2022-10-15T06:12:38;51.03;;;27.95;;
74100;SDS011;62462;52.530;21.682;2022-10-15T06:15:05;45.55;;;25.73;;
74100;SDS011;62462;52.530;21.682;2022-10-15T06:17:31;44.20;;;26.95;;
74100;SDS011;62462;52.530;21.682;2022-10-15T06:19:56;44.50;;;26.73;;
74100;SDS011;62462;52.530;21.682;2022-10-15T06:22:22;46.33;;;26.67;;
74100;SDS011;62462;52.530;21.682;2022-10-15T06:24:48;41.38;;;26.25;;
74100;SDS011;62462;52.530;21.682;2022-10-15T06:27:13;52.45;;;30.88;;
74100;SDS011;62462;52.530;21.682;2022-10-15T06:29:39;60.38;;;37.38;;
74100;SDS011;62462;52.530;21.682;2022-10-15T06:32:09;60.50;;;36.30;;
74100;SDS011;62462;52.530;21.682;2022-10-15T06:34:35;55.58;;;33.30;;
74100;SDS011;62462;52.530;21.682;2022-10-15T06:37:01;49.35;;;28.63;;
74100;SDS011;62462;52.530;21.682;2022-10-15T06:39:27;44.88;;;26.67;;
74100;SDS011;62462;52.530;21.682;2022-10-15T06:41:53;54.45;;;28.48;;
74100;SDS011;62462;52.530;21.682;2022-10-15T06:44:18;46.88;;;26.73;;
74100;SDS011;62462;52.530;21.682;2022-10-15T06:46:44;46.00;;;27.30;;
74100;SDS011;62462;52.530;21.682;2022-10-15T06:49:10;44.72;;;26.55;;
74100;SDS011;62462;52.530;21.682;2022-10-15T06:51:35;48.85;;;28.40;;
74100;SDS011;62462;52.530;21.682;2022-10-15T06:54:02;49.33;;;28.67;;
74100;SDS011;62462;52.530;21.682;2022-10-15T06:56:28;44.30;;;26.60;;
74100;SDS011;62462;52.530;21.682;2022-10-15T06:58:53;65.78;;;33.50;;
74100;SDS011;62462;52.530;21.682;2022-10-15T07:01:19;57.30;;;31.23;;
74100;SDS011;62462;52.530;21.682;2022-10-15T07:03:49;60.13;;;32.72;;
74100;SDS011;62462;52.530;21.682;2022-10-15T07:06:15;48.63;;;28.98;;
74100;SDS011;62462;52.530;21.682;2022-10-15T07:08:41;47.85;;;29.13;;
74100;SDS011;62462;52.530;21.682;2022-10-15T07:11:09;56.85;;;31.02;;
74100;SDS011;62462;52.530;21.682;2022-10-15T07:13:35;53.40;;;31.60;;
74100;SDS011;62462;52.530;21.682;2022-10-15T07:16:02;52.95;;;29.60;;
74100;SDS011;62462;52.530;21.682;2022-10-15T07:18:33;52.40;;;30.10;;
74100;SDS011;62462;52.530;21.682;2022-10-15T07:20:59;52.53;;;31.00;;
74100;SDS011;62462;52.530;21.682;2022-10-15T07:23:25;49.72;;;28.58;;
74100;SDS011;62462;52.530;21.682;2022-10-15T07:25:50;44.75;;;27.42;;
74100;SDS011;62462;52.530;21.682;2022-10-15T07:28:16;48.35;;;29.70;;
74100;SDS011;62462;52.530;21.682;2022-10-15T07:30:42;46.05;;;28.10;;
74100;SDS011;62462;52.530;21.682;2022-10-15T07:33:08;43.35;;;25.90;;
74100;SDS011;62462;52.530;21.682;2022-10-15T07:35:35;54.92;;;33.25;;
74100;SDS011;62462;52.530;21.682;2022-10-15T07:38:02;45.95;;;29.10;;
74100;SDS011;62462;52.530;21.682;2022-10-15T07:40:28;40.80;;;27.10;;
74100;SDS011;62462;52.530;21.682;2022-10-15T07:42:57;45.22;;;26.48;;
74100;SDS011;62462;52.530;21.682;2022-10-15T07:45:23;42.10;;;25.90;;
74100;SDS011;62462;52.530;21.682;2022-10-15T07:47:50;40.25;;;25.05;;
74100;SDS011;62462;52.530;21.682;2022-10-15T07:50:16;38.97;;;24.25;;
74100;SDS011;62462;52.530;21.682;2022-10-15T07:52:43;36.03;;;22.83;;
74100;SDS011;62462;52.530;21.682;2022-10-15T07:55:09;38.00;;;23.58;;
74100;SDS011;62462;52.530;21.682;2022-10-15T07:57:34;36.03;;;23.55;;
74100;SDS011;62462;52.530;21.682;2022-10-15T08:00:00;37.60;;;23.67;;
74100;SDS011;62462;52.530;21.682;2022-10-15T08:02:26;34.45;;;22.48;;
74100;SDS011;62462;52.530;21.682;2022-10-15T08:04:52;34.30;;;22.20;;
74100;SDS011;62462;52.530;21.682;2022-10-15T08:07:17;34.58;;;21.85;;
74100;SDS011;62462;52.530;21.682;2022-10-15T08:09:43;35.78;;;22.13;;
74100;SDS011;62462;52.530;21.682;2022-10-15T08:12:09;30.80;;;20.08;;
74100;SDS011;62462;52.530;21.682;2022-10-15T08:14:35;35.42;;;22.65;;
74100;SDS011;62462;52.530;21.682;2022-10-15T08:17:02;35.55;;;22.02;;
74100;SDS011;62462;52.530;21.682;2022-10-15T08:19:28;33.15;;;21.02;;
74100;SDS011;62462;52.530;21.682;2022-10-15T08:21:54;31.25;;;20.58;;
74100;SDS011;62462;52.530;21.682;2022-10-15T08:24:20;30.98;;;19.90;;
74100;SDS011;62462;52.530;21.682;2022-10-15T08:26:46;34.28;;;21.80;;
74100;SDS011;62462;52.530;21.682;2022-10-15T08:29:12;42.05;;;24.17;;
74100;SDS011;62462;52.530;21.682;2022-10-15T08:31:38;37.60;;;22.30;;
74100;SDS011;62462;52.530;21.682;2022-10-15T08:34:04;31.73;;;21.05;;
74100;SDS011;62462;52.530;21.682;2022-10-15T08:36:29;35.58;;;22.88;;
74100;SDS011;62462;52.530;21.682;2022-10-15T08:38:55;36.28;;;22.10;;
74100;SDS011;62462;52.530;21.682;2022-10-15T08:41:27;29.95;;;20.95;;
74100;SDS011;62462;52.530;21.682;2022-10-15T08:43:54;29.13;;;19.33;;
74100;SDS011;62462;52.530;21.682;2022-10-15T08:46:36;30.20;;;19.00;;
74100;SDS011;62462;52.530;21.682;2022-10-15T08:49:13;29.08;;;18.88;;
74100;SDS011;62462;52.530;21.682;2022-10-15T08:51:50;31.35;;;18.50;;
74100;SDS011;62462;52.530;21.682;2022-10-15T08:54:19;28.63;;;18.17;;
74100;SDS011;62462;52.530;21.682;2022-10-15T08:56:46;25.20;;;16.55;;
74100;SDS011;62462;52.530;21.682;2022-10-15T09:10:11;27.48;;;16.15;;
74100;SDS011;62462;52.530;21.682;2022-10-15T09:12:49;25.23;;;15.70;;
74100;SDS011;62462;52.530;21.682;2022-10-15T09:15:18;25.10;;;16.10;;
74100;SDS011;62462;52.530;21.682;2022-10-15T09:17:46;24.13;;;15.77;;
74100;SDS011;62462;52.530;21.682;2022-10-15T09:20:18;22.48;;;14.13;;
74100;SDS011;62462;52.530;21.682;2022-10-15T09:22:49;18.83;;;13.00;;
74100;SDS011;62462;52.530;21.682;2022-10-15T09:25:17;20.83;;;13.18;;
74100;SDS011;62462;52.530;21.682;2022-10-15T09:27:46;22.50;;;13.73;;
74100;SDS011;62462;52.530;21.682;2022-10-15T09:30:25;18.77;;;12.15;;
74100;SDS011;62462;52.530;21.682;2022-10-15T09:35:37;23.25;;;14.35;;
74100;SDS011;62462;52.530;21.682;2022-10-15T09:43:58;24.60;;;14.45;;
74100;SDS011;62462;52.530;21.682;2022-10-15T09:46:26;22.67;;;14.57;;
74100;SDS011;62462;52.530;21.682;2022-10-15T09:48:57;20.05;;;13.82;;
74100;SDS011;62462;52.530;21.682;2022-10-15T09:51:49;22.20;;;15.13;;
74100;SDS011;62462;52.530;21.682;2022-10-15T09:57:06;26.65;;;15.45;;
74100;SDS011;62462;52.530;21.682;2022-10-15T09:59:34;28.15;;;15.43;;
74100;SDS011;62462;52.530;21.682;2022-10-15T10:02:00;20.85;;;13.30;;
74100;SDS011;62462;52.530;21.682;2022-10-15T10:04:29;20.17;;;13.82;;
74100;SDS011;62462;52.530;21.682;2022-10-15T10:07:00;21.13;;;14.63;;
74100;SDS011;62462;52.530;21.682;2022-10-15T10:12:05;24.90;;;15.77;;
74100;SDS011;62462;52.530;21.682;2022-10-15T10:14:33;19.08;;;14.15;;
74100;SDS011;62462;52.530;21.682;2022-10-15T10:17:03;24.38;;;14.73;;
74100;SDS011;62462;52.530;21.682;2022-10-15T10:19:35;21.17;;;15.18;;
74100;SDS011;62462;52.530;21.682;2022-10-15T10:22:05;20.67;;;13.73;;
74100;SDS011;62462;52.530;21.682;2022-10-15T10:24:39;22.13;;;14.10;;
74100;SDS011;62462;52.530;21.682;2022-10-15T10:27:11;21.38;;;14.77;;
74100;SDS011;62462;52.530;21.682;2022-10-15T10:29:47;25.05;;;14.95;;
74100;SDS011;62462;52.530;21.682;2022-10-15T10:32:25;21.33;;;14.10;;
74100;SDS011;62462;52.530;21.682;2022-10-15T10:34:54;25.02;;;15.88;;
74100;SDS011;62462;52.530;21.682;2022-10-15T10:37:21;22.52;;;14.60;;
74100;SDS011;62462;52.530;21.682;2022-10-15T10:39:57;21.45;;;14.57;;
74100;SDS011;62462;52.530;21.682;2022-10-15T10:42:33;22.30;;;15.07;;
74100;SDS011;62462;52.530;21.682;2022-10-15T10:48:02;22.63;;;14.93;;
74100;SDS011;62462;52.530;21.682;2022-10-15T10:50:44;21.30;;;15.32;;
74100;SDS011;62462;52.530;21.682;2022-10-15T10:53:20;22.60;;;15.55;;
74100;SDS011;62462;52.530;21.682;2022-10-15T10:55:49;30.30;;;18.77;;
74100;SDS011;62462;52.530;21.682;2022-10-15T10:58:19;22.45;;;15.15;;
74100;SDS011;62462;52.530;21.682;2022-10-15T11:00:48;24.52;;;16.13;;
74100;SDS011;62462;52.530;21.682;2022-10-15T11:03:35;21.60;;;14.35;;
74100;SDS011;62462;52.530;21.682;2022-10-15T11:28:28;24.20;;;15.60;;
74100;SDS011;62462;52.530;21.682;2022-10-15T11:31:36;21.58;;;14.25;;
74100;SDS011;62462;52.530;21.682;2022-10-15T11:40:19;20.30;;;14.38;;
74100;SDS011;62462;52.530;21.682;2022-10-15T11:42:56;22.58;;;14.60;;
74100;SDS011;62462;52.530;21.682;2022-10-15T11:47:55;18.60;;;13.13;;
74100;SDS011;62462;52.530;21.682;2022-10-15T11:50:38;21.33;;;13.98;;
74100;SDS011;62462;52.530;21.682;2022-10-15T11:58:17;20.92;;;13.70;;
74100;SDS011;62462;52.530;21.682;2022-10-15T12:03:24;35.60;;;19.27;;
74100;SDS011;62462;52.530;21.682;2022-10-15T12:06:14;27.88;;;18.27;;
74100;SDS011;62462;52.530;21.682;2022-10-15T12:08:40;31.63;;;18.42;;
74100;SDS011;62462;52.530;21.682;2022-10-15T12:11:19;21.83;;;14.27;;
74100;SDS011;62462;52.530;21.682;2022-10-15T12:14:21;21.00;;;14.27;;
74100;SDS011;62462;52.530;21.682;2022-10-15T12:19:48;23.90;;;15.82;;
74100;SDS011;62462;52.530;21.682;2022-10-15T12:22:32;24.83;;;16.75;;
74100;SDS011;62462;52.530;21.682;2022-10-15T12:28:01;56.28;;;33.20;;
74100;SDS011;62462;52.530;21.682;2022-10-15T12:30:35;45.47;;;26.17;;
74100;SDS011;62462;52.530;21.682;2022-10-15T12:33:02;31.00;;;21.08;;
74100;SDS011;62462;52.530;21.682;2022-10-15T12:35:51;21.73;;;13.82;;
74100;SDS011;62462;52.530;21.682;2022-10-15T12:38:31;22.50;;;13.75;;
74100;SDS011;62462;52.530;21.682;2022-10-15T12:41:04;16.88;;;12.70;;
74100;SDS011;62462;52.530;21.682;2022-10-15T12:43:44;19.70;;;14.02;;
74100;SDS011;62462;52.530;21.682;2022-10-15T12:46:16;19.85;;;12.70;;
74100;SDS011;62462;52.530;21.682;2022-10-15T12:48:43;15.73;;;12.73;;
74100;SDS011;62462;52.530;21.682;2022-10-15T12:53:48;20.15;;;12.40;;
74100;SDS011;62462;52.530;21.682;2022-10-15T12:58:48;17.35;;;12.52;;
74100;SDS011;62462;52.530;21.682;2022-10-15T13:11:35;16.80;;;12.38;;
74100;SDS011;62462;52.530;21.682;2022-10-15T13:16:50;25.20;;;15.20;;
74100;SDS011;62462;52.530;21.682;2022-10-15T13:24:24;31.42;;;17.33;;
74100;SDS011;62462;52.530;21.682;2022-10-15T13:26:52;23.50;;;14.63;;
74100;SDS011;62462;52.530;21.682;2022-10-15T13:29:21;23.25;;;14.73;;
74100;SDS011;62462;52.530;21.682;2022-10-15T13:31:49;25.55;;;17.08;;
74100;SDS011;62462;52.530;21.682;2022-10-15T13:34:27;23.40;;;15.52;;
74100;SDS011;62462;52.530;21.682;2022-10-15T13:36:59;26.23;;;16.52;;
74100;SDS011;62462;52.530;21.682;2022-10-15T13:47:35;22.85;;;12.93;;
74100;SDS011;62462;52.530;21.682;2022-10-15T13:50:12;20.83;;;12.13;;
74100;SDS011;62462;52.530;21.682;2022-10-15T13:52:54;16.67;;;11.32;;
74100;SDS011;62462;52.530;21.682;2022-10-15T13:55:28;15.20;;;12.05;;
74100;SDS011;62462;52.530;21.682;2022-10-15T13:58:02;19.00;;;13.43;;
74100;SDS011;62462;52.530;21.682;2022-10-15T14:00:52;17.33;;;12.73;;
74100;SDS011;62462;52.530;21.682;2022-10-15T14:03:26;17.30;;;11.43;;
74100;SDS011;62462;52.530;21.682;2022-10-15T14:05:53;19.55;;;11.77;;
74100;SDS011;62462;52.530;21.682;2022-10-15T14:10:47;16.35;;;11.23;;
74100;SDS011;62462;52.530;21.682;2022-10-15T14:13:15;27.65;;;16.58;;
74100;SDS011;62462;52.530;21.682;2022-10-15T14:18:16;24.85;;;15.90;;
74100;SDS011;62462;52.530;21.682;2022-10-15T14:20:51;19.80;;;14.15;;
74100;SDS011;62462;52.530;21.682;2022-10-15T14:23:21;23.13;;;15.38;;
74100;SDS011;62462;52.530;21.682;2022-10-15T14:25:55;21.20;;;14.13;;
74100;SDS011;62462;52.530;21.682;2022-10-15T14:28:26;16.88;;;12.30;;
74100;SDS011;62462;52.530;21.682;2022-10-15T14:30:53;16.48;;;12.15;;
74100;SDS011;62462;52.530;21.682;2022-10-15T14:36:08;19.55;;;12.32;;
74100;SDS011;62462;52.530;21.682;2022-10-15T14:38:43;18.73;;;12.38;;
74100;SDS011;62462;52.530;21.682;2022-10-15T14:44:02;20.33;;;12.50;;
74100;SDS011;62462;52.530;21.682;2022-10-15T14:49:27;20.63;;;12.82;;
74100;SDS011;62462;52.530;21.682;2022-10-15T14:51:53;21.88;;;12.05;;
74100;SDS011;62462;52.530;21.682;2022-10-15T14:54:34;18.95;;;12.65;;
74100;SDS011;62462;52.530;21.682;2022-10-15T14:57:03;18.98;;;13.10;;
74100;SDS011;62462;52.530;21.682;2022-10-15T14:59:38;20.27;;;13.30;;
74100;SDS011;62462;52.530;21.682;2022-10-15T15:02:05;18.95;;;12.77;;
74100;SDS011;62462;52.530;21.682;2022-10-15T15:04:43;21.88;;;14.18;;
74100;SDS011;62462;52.530;21.682;2022-10-15T15:07:11;23.67;;;14.82;;
74100;SDS011;62462;52.530;21.682;2022-10-15T15:09:38;23.98;;;13.57;;
74100;SDS011;62462;52.530;21.682;2022-10-15T15:12:06;21.02;;;13.93;;
74100;SDS011;62462;52.530;21.682;2022-10-15T15:14:39;25.00;;;14.05;;
74100;SDS011;62462;52.530;21.682;2022-10-15T15:17:04;21.15;;;13.93;;
74100;SDS011;62462;52.530;21.682;2022-10-15T15:19:30;18.55;;;13.77;;
74100;SDS011;62462;52.530;21.682;2022-10-15T15:21:56;23.00;;;14.30;;
74100;SDS011;62462;52.530;21.682;2022-10-15T15:24:22;22.58;;;13.15;;
74100;SDS011;62462;52.530;21.682;2022-10-15T15:26:48;23.55;;;13.60;;
74100;SDS011;62462;52.530;21.682;2022-10-15T15:29:14;22.42;;;14.20;;
74100;SDS011;62462;52.530;21.682;2022-10-15T15:31:39;22.98;;;13.85;;
74100;SDS011;62462;52.530;21.682;2022-10-15T15:34:05;24.25;;;14.65;;
74100;SDS011;62462;52.530;21.682;2022-10-15T15:36:31;22.25;;;15.32;;
74100;SDS011;62462;52.530;21.682;2022-10-15T15:38:56;27.33;;;16.73;;
74100;SDS011;62462;52.530;21.682;2022-10-15T15:41:23;26.95;;;16.73;;
74100;SDS011;62462;52.530;21.682;2022-10-15T15:43:50;27.10;;;16.83;;
74100;SDS011;62462;52.530;21.682;2022-10-15T15:46:16;27.63;;;15.95;;
74100;SDS011;62462;52.530;21.682;2022-10-15T15:48:42;26.35;;;16.35;;
74100;SDS011;62462;52.530;21.682;2022-10-15T15:53:37;27.20;;;16.55;;
74100;SDS011;62462;52.530;21.682;2022-10-15T15:56:02;25.40;;;14.68;;
74100;SDS011;62462;52.530;21.682;2022-10-15T15:58:28;26.45;;;14.95;;
74100;SDS011;62462;52.530;21.682;2022-10-15T16:00:54;22.35;;;14.95;;
74100;SDS011;62462;52.530;21.682;2022-10-15T16:03:19;22.23;;;14.63;;
74100;SDS011;62462;52.530;21.682;2022-10-15T16:05:45;20.17;;;14.40;;
74100;SDS011;62462;52.530;21.682;2022-10-15T16:08:13;25.20;;;15.05;;
74100;SDS011;62462;52.530;21.682;2022-10-15T16:10:39;21.20;;;15.40;;
74100;SDS011;62462;52.530;21.682;2022-10-15T16:13:04;23.10;;;15.32;;
74100;SDS011;62462;52.530;21.682;2022-10-15T16:15:30;23.13;;;15.93;;
74100;SDS011;62462;52.530;21.682;2022-10-15T16:17:56;25.05;;;15.25;;
74100;SDS011;62462;52.530;21.682;2022-10-15T16:20:21;22.77;;;15.23;;
74100;SDS011;62462;52.530;21.682;2022-10-15T16:22:51;34.15;;;19.80;;
74100;SDS011;62462;52.530;21.682;2022-10-15T16:25:17;50.90;;;27.63;;
74100;SDS011;62462;52.530;21.682;2022-10-15T16:27:44;27.35;;;17.02;;
74100;SDS011;62462;52.530;21.682;2022-10-15T16:30:12;23.20;;;16.08;;
74100;SDS011;62462;52.530;21.682;2022-10-15T16:32:39;27.02;;;17.52;;
74100;SDS011;62462;52.530;21.682;2022-10-15T16:35:05;28.05;;;16.85;;
74100;SDS011;62462;52.530;21.682;2022-10-15T16:37:31;26.55;;;16.83;;
74100;SDS011;62462;52.530;21.682;2022-10-15T16:39:57;29.05;;;17.33;;
74100;SDS011;62462;52.530;21.682;2022-10-15T16:42:23;25.90;;;16.50;;
74100;SDS011;62462;52.530;21.682;2022-10-15T16:44:49;25.17;;;16.52;;
74100;SDS011;62462;52.530;21.682;2022-10-15T16:47:15;27.90;;;17.20;;
74100;SDS011;62462;52.530;21.682;2022-10-15T16:49:41;30.80;;;18.58;;
74100;SDS011;62462;52.530;21.682;2022-10-15T16:52:07;28.95;;;17.35;;